• Join FlightAware (Why Join?)
  • Login
  • US Flag 
10:12AM EDT


 

Airport Tracker/Info


-or-


 

Live Flight TrackerFlight Track Log ✈ N437FA ✈ 15-Aug-2013 ✈ LEMD / MAD - KWVL

Flight Track Log - Related Links

Times and Time Zones

All times are in EDT time to prevent confusion due to time zone crossing. See the N437FA flight status page for this flight to view local times or setup timezone preferences in your user account.

Time Position Orientation Groundspeed Altitude Reporting Facility
EDT Latitude Longitude Course Direction KTS MPH feet Rate Location/Type
09:58AM 41.2833 -72.9500 39° Northeast 128 147 5,500  Level New York TRACON
10:00AM 41.3428 -72.8853 39° Northeast 124 143 5,500  Level Boston Center
10:01AM 41.3681 -72.8633 33° Northeast 122 140 5,500  Level Boston Center
10:02AM 41.3994 -72.8331 36° Northeast 124 143 5,500  Level Boston Center
10:03AM 41.4286 -72.8056 35° Northeast 124 143 5,500  Level Boston Center
10:04AM 41.4578 -72.7808 32° Northeast 121 139 5,500  Level Boston Center
10:05AM 41.4850 -72.7533 37° Northeast 121 139 5,500  Level Boston Center
10:06AM 41.5269 -72.7144 35° Northeast 120 138 5,500  Level Boston Center
10:07AM 41.5497 -72.6897 39° Northeast 121 139 5,500  Level Boston Center
10:08AM 41.5792 -72.6619 35° Northeast 120 138 5,500  Level Boston Center
10:09AM 41.5958 -72.6483 31° Northeast 121 139 5,500  Level Boston Center
10:10AM 41.6269 -72.6178 36° Northeast 121 139 5,500  Level Boston Center
10:11AM 41.6564 -72.5900 35° Northeast 123 142 5,500  Level Boston Center
10:12AM 41.6792 -72.5681 36° Northeast 121 139 5,500  Level Boston Center
10:13AM 41.7106 -72.5375 36° Northeast 121 139 5,500  Level Boston Center
10:14AM 41.7417 -72.5069 36° Northeast 121 139 5,500  Level Boston Center
10:15AM 41.7689 -72.4819 34° Northeast 125 144 5,500  Level Boston Center
10:16AM 41.7981 -72.4539 36° Northeast 123 142 5,500  Level Boston Center
10:17AM 41.8253 -72.4289 34° Northeast 122 140 5,500  Level Boston Center
10:18AM 41.8522 -72.4011 38° Northeast 125 144 5,500  Level Boston Center
10:19AM 41.8856 -72.3703 35° Northeast 122 140 5,500  Level Boston Center
10:21AM 41.9128 -72.3425 37° Northeast 121 139 5,500  Level Boston Center
10:22AM 41.9419 -72.3172 33° Northeast 119 137 5,500  Level Boston Center
10:23AM 41.9711 -72.2864 38° Northeast 122 140 5,500  Level Boston Center
10:23AM 41.9897 -72.2669 38° Northeast 121 139 5,500  Level Boston Center
10:24AM 42.0189 -72.2389 36° Northeast 117 135 5,500  Level Boston Center
10:25AM 42.0458 -72.2136 35° Northeast 124 143 5,500  Level Boston Center
10:26AM 42.0731 -72.1883 35° Northeast 119 137 5,500  Level Boston Center
10:28AM 42.1103 -72.1547 34° Northeast 121 139 5,500  Level Boston Center
10:28AM 42.1292 -72.1350 38° Northeast 122 140 5,500  Level Boston Center
10:29AM 42.1456 -72.1153 42° Northeast 121 139 5,500  Level Boston Center
10:30AM 42.1789 -72.0842 35° Northeast 121 139 5,500  Level Boston Center
10:31AM 42.2039 -72.0617 34° Northeast 121 139 5,500  Level Boston Center
10:32AM 42.2183 -72.0475 36° Northeast 125 144 5,500  Level Boston Center
10:32AM 42.2331 -72.0306 40° Northeast 126 145 5,500  Level Boston Center
10:33AM 42.2558 -72.0081 36° Northeast 138 159 5,500  Level Boston Center
10:34AM 42.2889 -71.9769 35° Northeast 133 153 5,600  Climbing Boston Center
10:35AM 42.3119 -71.9544 36° Northeast 128 147 5,500 -60 Descending Boston Center
10:36AM 42.3472 -71.9206 35° Northeast 128 147 5,500  Level Boston Center
10:37AM 42.3742 -71.8950 35° Northeast 128 147 5,500  Level Boston Center
10:38AM 42.4011 -71.8667 38° Northeast 128 147 5,500  Level Boston Center
10:39AM 42.4322 -71.8381 34° Northeast 122 140 5,500  Level Boston Center
10:40AM 42.4508 -71.8211 34° Northeast 122 140 5,500  Level Boston Center
10:41AM 42.4797 -71.7925 36° Northeast 122 140 5,500  Level Boston Center
10:42AM 42.5108 -71.7586 39° Northeast 122 140 5,500  Level Boston Center
10:43AM 42.5419 -71.7300 34° Northeast 122 140 5,500  Level Boston Center
10:44AM 42.5586 -71.7100 41° Northeast 122 140 5,500  Level Boston Center
10:45AM 42.5958 -71.6758 34° Northeast 122 140 5,500 -60 Level Boston Center
10:46AM 42.6228 -71.6500 35° Northeast 122 140 5,400 -60 Descending Boston Center
10:47AM 42.6497 -71.6214 38° Northeast 122 140 5,400  Level Boston Center
10:48AM 42.6786 -71.5928 36° Northeast 122 140 5,400  Level Boston Center
10:49AM 42.7075 -71.5642 36° Northeast 122 140 5,400  Level Boston Center
10:50AM 42.7344 -71.5356 38° Northeast 122 140 5,400  Level Boston Center
10:51AM 42.7572 -71.5153 33° Northeast 122 140 5,400  Level Boston Center
10:52AM 42.7903 -71.4811 37° Northeast 122 140 5,400  Level Boston Center
10:53AM 42.8150 -71.4581 34° Northeast 122 140 5,400  Level Boston Center
10:54AM 42.8439 -71.4264 39° Northeast 122 140 5,400  Level Boston Center
10:55AM 42.8689 -71.4061 31° Northeast 122 140 5,400  Level Boston Center
10:56AM 42.9000 -71.3667 43° Northeast 120 138 5,400  Level KA90
10:57AM 42.9333 -71.3333 36° Northeast 121 139 5,400  Level KA90
10:58AM 42.9500 -71.3167 36° Northeast 124 143 5,400  Level KA90
10:59AM 42.9833 -71.2833 36° Northeast 122 140 5,400  Level KA90
11:00AM 43.0167 -71.2500 36° Northeast 126 145 5,400  Level KA90
11:01AM 43.0500 -71.2333 20° North 124 143 5,400  Level KA90
11:02AM 43.0667 -71.2000 56° Northeast 122 140 5,400  Level KA90
11:03AM 43.1000 -71.1667 36° Northeast 123 142 5,400  Level KA90
11:04AM 43.1167 -71.1500 36° Northeast 124 143 5,400  Level KA90
11:05AM 43.1500 -71.1167 36° Northeast 123 142 5,400  Level KA90
11:06AM 43.1833 -71.0833 36° Northeast 127 146 5,400  Level KA90
11:07AM 43.2000 -71.0667 36° Northeast 127 146 5,400  Level KA90
11:08AM 43.2333 -71.0333 36° Northeast 126 145 5,400  Level KA90
11:10AM 43.2565 -70.9935 36° Northeast  Level FlightAware Approximate
11:17AM 43.4519 -70.7943 37° Northeast  Level FlightAware Approximate
11:18AM 43.4796 -70.7653 37° Northeast  Level FlightAware Approximate
11:19AM 43.5072 -70.7363 37° Northeast  Level FlightAware Approximate
11:20AM 43.5349 -70.7073 37° Northeast  Level FlightAware Approximate
11:21AM 43.5625 -70.6783 37° Northeast  Level FlightAware Approximate
11:22AM 43.5902 -70.6492 37° Northeast  Level FlightAware Approximate
11:23AM 43.6178 -70.6201 37° Northeast  Level FlightAware Approximate
11:24AM 43.6454 -70.5910 37° Northeast  Level FlightAware Approximate
11:25AM 43.6730 -70.5618 37° Northeast  Level FlightAware Approximate
11:26AM 43.7006 -70.5327 37° Northeast  Level FlightAware Approximate
11:27AM 43.7284 -70.5037 37° Northeast  Level FlightAware Approximate
11:28AM 43.7561 -70.4746 37° Northeast  Level FlightAware Approximate
11:29AM 43.7838 -70.4456 37° Northeast  Level FlightAware Approximate
11:30AM 43.8115 -70.4165 37° Northeast  Level FlightAware Approximate
11:31AM 43.8391 -70.3874 37° Northeast  Level FlightAware Approximate
11:32AM 43.8668 -70.3583 37° Northeast  Level FlightAware Approximate
11:33AM 43.8945 -70.3291 37° Northeast  Level FlightAware Approximate
11:34AM 43.9222 -70.2999 37° Northeast  Level FlightAware Approximate
11:35AM 43.9498 -70.2707 37° Northeast  Level FlightAware Approximate
11:36AM 43.9775 -70.2415 37° Northeast  Level FlightAware Approximate
11:37AM 44.0051 -70.2122 37° Northeast  Level FlightAware Approximate
11:38AM 44.0328 -70.1831 37° Northeast  Level FlightAware Approximate
11:39AM 44.0606 -70.1541 37° Northeast  Level FlightAware Approximate
11:40AM 44.0884 -70.1251 37° Northeast  Level FlightAware Approximate
11:41AM 44.1162 -70.0960 37° Northeast  Level FlightAware Approximate
11:42AM 44.1440 -70.0669 37° Northeast  Level FlightAware Approximate
11:43AM 44.1717 -70.0378 37° Northeast  Level FlightAware Approximate
11:44AM 44.1995 -70.0087 37° Northeast  Level FlightAware Approximate
11:45AM 44.2273 -69.9795 37° Northeast  Level FlightAware Approximate
11:46AM 44.2550 -69.9503 37° Northeast  Level FlightAware Approximate
11:47AM 44.2827 -69.9210 37° Northeast  Level FlightAware Approximate
11:48AM 44.3105 -69.8918 37° Northeast  Level FlightAware Approximate
11:49AM 44.3382 -69.8625 37° Northeast  Level FlightAware Approximate
11:50AM 44.3662 -69.8338 36° Northeast  Level FlightAware Approximate
11:51AM 44.3945 -69.8055 36° Northeast  Level FlightAware Approximate
11:52AM 44.4228 -69.7773 36° Northeast  Level FlightAware Approximate
11:53AM 44.4499 -69.7469 41° Northeast  Level FlightAware Approximate
11:54AM 44.4763 -69.7152 41° Northeast  Level FlightAware Approximate
11:55AM 44.5027 -69.6835 41° Northeast  Level FlightAware Approximate
11:56AM 44.5167 -69.6667 41° Northeast  Level FlightAware Approximate
11:57AM 44.5332 -69.6755 41° Northeast  Level Estimated
11:58AM 44.5332 -69.6755 41° Northeast  Level Estimated
11:59AM 44.5332 -69.6755 41° Northeast  Level Estimated
12:00PM 44.5332 -69.6755 41° Northeast  Level Estimated
12:01PM 44.5332 -69.6755 41° Northeast  Level Estimated